Terminal Aerodrome Forecast
Issued by NWS

Current Version | Previous Version | Text Only | Print | Product List | Glossary On
Versions: 1 2 3 4 5 6 7 8 9 10 11 12 13 14
000
FTUS42 TJSJ 020540
TAFJMZ
TAF
TJMZ 020540Z 0206/0306 07005KT P6SM SCT040 BKN120
     FM021530 27010KT P6SM VCSH SCT025 BKN040
     FM021800 26008KT P6SM VCTS BKN030CB BKN050
     FM022300 07006KT P6SM SCT030 SCT070
      AMD NOT SKED=

USA.gov is the U.S. government's official web portal to all federal, state and local government web resources and services.